sensor_id;sensor_type;location;lat;lon;timestamp;P1;durP1;ratioP1;P2;durP2;ratioP2
67749;SDS011;54550;48.838;8.828;2023-02-28T00:00:18;2.90;;;2.13;;
67749;SDS011;54550;48.838;8.828;2023-02-28T00:02:44;2.58;;;1.70;;
67749;SDS011;54550;48.838;8.828;2023-02-28T00:05:11;3.65;;;2.20;;
67749;SDS011;54550;48.838;8.828;2023-02-28T00:07:39;4.72;;;1.45;;
67749;SDS011;54550;48.838;8.828;2023-02-28T00:10:05;4.97;;;1.73;;
67749;SDS011;54550;48.838;8.828;2023-02-28T00:12:32;1.95;;;1.40;;
67749;SDS011;54550;48.838;8.828;2023-02-28T00:15:02;2.25;;;1.85;;
67749;SDS011;54550;48.838;8.828;2023-02-28T00:17:30;3.28;;;1.50;;
67749;SDS011;54550;48.838;8.828;2023-02-28T00:19:56;3.30;;;2.30;;
67749;SDS011;54550;48.838;8.828;2023-02-28T00:22:22;5.87;;;2.20;;
67749;SDS011;54550;48.838;8.828;2023-02-28T00:24:47;2.43;;;1.73;;
67749;SDS011;54550;48.838;8.828;2023-02-28T00:27:13;4.20;;;1.87;;
67749;SDS011;54550;48.838;8.828;2023-02-28T00:29:39;6.40;;;2.20;;
67749;SDS011;54550;48.838;8.828;2023-02-28T00:32:05;5.30;;;2.10;;
67749;SDS011;54550;48.838;8.828;2023-02-28T00:34:31;3.63;;;2.38;;
67749;SDS011;54550;48.838;8.828;2023-02-28T00:37:03;4.53;;;2.17;;
67749;SDS011;54550;48.838;8.828;2023-02-28T00:39:29;2.15;;;1.92;;
67749;SDS011;54550;48.838;8.828;2023-02-28T00:41:55;2.67;;;2.30;;
67749;SDS011;54550;48.838;8.828;2023-02-28T00:44:20;4.33;;;2.80;;
67749;SDS011;54550;48.838;8.828;2023-02-28T00:46:46;5.37;;;2.30;;
67749;SDS011;54550;48.838;8.828;2023-02-28T00:49:12;3.73;;;1.63;;
67749;SDS011;54550;48.838;8.828;2023-02-28T00:51:37;6.83;;;2.90;;
67749;SDS011;54550;48.838;8.828;2023-02-28T00:54:03;5.43;;;3.13;;
67749;SDS011;54550;48.838;8.828;2023-02-28T00:56:28;2.80;;;2.20;;
67749;SDS011;54550;48.838;8.828;2023-02-28T00:58:54;3.73;;;2.10;;
67749;SDS011;54550;48.838;8.828;2023-02-28T01:01:19;14.40;;;2.60;;
67749;SDS011;54550;48.838;8.828;2023-02-28T01:03:45;7.13;;;2.80;;
67749;SDS011;54550;48.838;8.828;2023-02-28T01:06:10;3.43;;;2.27;;
67749;SDS011;54550;48.838;8.828;2023-02-28T01:08:36;3.23;;;2.33;;
67749;SDS011;54550;48.838;8.828;2023-02-28T01:11:09;3.97;;;2.47;;
67749;SDS011;54550;48.838;8.828;2023-02-28T01:13:36;10.80;;;3.25;;
67749;SDS011;54550;48.838;8.828;2023-02-28T01:16:01;2.70;;;2.47;;
67749;SDS011;54550;48.838;8.828;2023-02-28T01:18:27;9.07;;;2.93;;
67749;SDS011;54550;48.838;8.828;2023-02-28T01:20:53;5.40;;;3.35;;
67749;SDS011;54550;48.838;8.828;2023-02-28T01:23:20;3.27;;;2.17;;
67749;SDS011;54550;48.838;8.828;2023-02-28T01:25:48;2.78;;;2.38;;
67749;SDS011;54550;48.838;8.828;2023-02-28T01:28:16;3.50;;;2.50;;
67749;SDS011;54550;48.838;8.828;2023-02-28T01:30:42;5.50;;;2.70;;
67749;SDS011;54550;48.838;8.828;2023-02-28T01:33:08;4.73;;;2.87;;
67749;SDS011;54550;48.838;8.828;2023-02-28T01:35:34;5.53;;;2.85;;
67749;SDS011;54550;48.838;8.828;2023-02-28T01:38:01;7.85;;;3.38;;
67749;SDS011;54550;48.838;8.828;2023-02-28T01:40:27;6.57;;;3.08;;
67749;SDS011;54550;48.838;8.828;2023-02-28T01:42:52;2.60;;;2.40;;
67749;SDS011;54550;48.838;8.828;2023-02-28T01:45:20;3.10;;;2.40;;
67749;SDS011;54550;48.838;8.828;2023-02-28T01:47:50;2.88;;;2.33;;
67749;SDS011;54550;48.838;8.828;2023-02-28T01:50:19;7.72;;;3.08;;
67749;SDS011;54550;48.838;8.828;2023-02-28T01:52:49;4.20;;;2.67;;
67749;SDS011;54550;48.838;8.828;2023-02-28T01:55:18;4.05;;;3.28;;
67749;SDS011;54550;48.838;8.828;2023-02-28T01:57:46;6.22;;;3.28;;
67749;SDS011;54550;48.838;8.828;2023-02-28T02:00:20;8.55;;;3.35;;
67749;SDS011;54550;48.838;8.828;2023-02-28T02:02:50;5.22;;;3.65;;
67749;SDS011;54550;48.838;8.828;2023-02-28T02:05:20;5.28;;;3.17;;
67749;SDS011;54550;48.838;8.828;2023-02-28T02:10:57;3.65;;;3.28;;
67749;SDS011;54550;48.838;8.828;2023-02-28T02:16:04;4.88;;;3.13;;
67749;SDS011;54550;48.838;8.828;2023-02-28T02:19:08;5.00;;;2.90;;
67749;SDS011;54550;48.838;8.828;2023-02-28T02:22:12;3.78;;;3.08;;
67749;SDS011;54550;48.838;8.828;2023-02-28T02:35:56;5.88;;;3.47;;
67749;SDS011;54550;48.838;8.828;2023-02-28T02:38:33;3.78;;;3.15;;
67749;SDS011;54550;48.838;8.828;2023-02-28T02:46:32;4.15;;;3.72;;
67749;SDS011;54550;48.838;8.828;2023-02-28T02:49:05;5.30;;;3.83;;
67749;SDS011;54550;48.838;8.828;2023-02-28T02:51:35;6.05;;;4.15;;
67749;SDS011;54550;48.838;8.828;2023-02-28T02:54:37;5.55;;;4.00;;
67749;SDS011;54550;48.838;8.828;2023-02-28T02:56:58;6.75;;;4.22;;
67749;SDS011;54550;48.838;8.828;2023-02-28T02:59:28;5.72;;;3.70;;
67749;SDS011;54550;48.838;8.828;2023-02-28T03:01:55;4.63;;;3.50;;
67749;SDS011;54550;48.838;8.828;2023-02-28T03:04:25;8.00;;;4.10;;
67749;SDS011;54550;48.838;8.828;2023-02-28T03:06:55;5.25;;;3.90;;
67749;SDS011;54550;48.838;8.828;2023-02-28T03:09:24;7.53;;;3.87;;
67749;SDS011;54550;48.838;8.828;2023-02-28T03:11:51;5.72;;;3.85;;
67749;SDS011;54550;48.838;8.828;2023-02-28T03:14:27;4.55;;;3.97;;
67749;SDS011;54550;48.838;8.828;2023-02-28T03:20:17;6.97;;;4.00;;
67749;SDS011;54550;48.838;8.828;2023-02-28T03:26:16;5.20;;;3.78;;
67749;SDS011;54550;48.838;8.828;2023-02-28T03:28:56;7.65;;;3.88;;
67749;SDS011;54550;48.838;8.828;2023-02-28T03:31:48;4.53;;;4.05;;
67749;SDS011;54550;48.838;8.828;2023-02-28T03:34:22;8.32;;;4.07;;
67749;SDS011;54550;48.838;8.828;2023-02-28T03:36:55;5.80;;;4.22;;
67749;SDS011;54550;48.838;8.828;2023-02-28T03:39:30;10.10;;;4.90;;
67749;SDS011;54550;48.838;8.828;2023-02-28T03:42:14;6.07;;;4.50;;
67749;SDS011;54550;48.838;8.828;2023-02-28T03:47:21;9.32;;;4.35;;
67749;SDS011;54550;48.838;8.828;2023-02-28T03:49:56;5.63;;;4.60;;
67749;SDS011;54550;48.838;8.828;2023-02-28T03:52:22;7.22;;;5.38;;
67749;SDS011;54550;48.838;8.828;2023-02-28T03:54:55;8.45;;;4.53;;
67749;SDS011;54550;48.838;8.828;2023-02-28T04:00:25;7.22;;;4.30;;
67749;SDS011;54550;48.838;8.828;2023-02-28T04:03:05;19.08;;;5.68;;
67749;SDS011;54550;48.838;8.828;2023-02-28T04:05:31;7.45;;;5.05;;
67749;SDS011;54550;48.838;8.828;2023-02-28T04:08:04;17.33;;;5.35;;
67749;SDS011;54550;48.838;8.828;2023-02-28T04:10:30;10.10;;;5.18;;
67749;SDS011;54550;48.838;8.828;2023-02-28T04:12:56;6.73;;;4.33;;
67749;SDS011;54550;48.838;8.828;2023-02-28T04:15:22;6.27;;;5.20;;
67749;SDS011;54550;48.838;8.828;2023-02-28T04:17:50;14.25;;;6.05;;
67749;SDS011;54550;48.838;8.828;2023-02-28T04:20:15;9.40;;;5.70;;
67749;SDS011;54550;48.838;8.828;2023-02-28T04:22:41;9.33;;;6.10;;
67749;SDS011;54550;48.838;8.828;2023-02-28T04:25:07;8.70;;;6.37;;
67749;SDS011;54550;48.838;8.828;2023-02-28T04:27:33;24.40;;;6.37;;
67749;SDS011;54550;48.838;8.828;2023-02-28T04:29:58;10.07;;;4.87;;
67749;SDS011;54550;48.838;8.828;2023-02-28T04:32:24;7.20;;;5.53;;
67749;SDS011;54550;48.838;8.828;2023-02-28T04:34:50;11.20;;;6.20;;
67749;SDS011;54550;48.838;8.828;2023-02-28T04:37:16;9.80;;;5.83;;
67749;SDS011;54550;48.838;8.828;2023-02-28T04:39:41;7.20;;;4.70;;
67749;SDS011;54550;48.838;8.828;2023-02-28T04:42:08;9.90;;;5.03;;
67749;SDS011;54550;48.838;8.828;2023-02-28T04:44:35;5.90;;;5.10;;
67749;SDS011;54550;48.838;8.828;2023-02-28T04:47:00;7.38;;;4.93;;
67749;SDS011;54550;48.838;8.828;2023-02-28T04:49:26;9.47;;;6.10;;
67749;SDS011;54550;48.838;8.828;2023-02-28T04:51:51;10.00;;;5.50;;
67749;SDS011;54550;48.838;8.828;2023-02-28T04:54:18;22.30;;;5.85;;
67749;SDS011;54550;48.838;8.828;2023-02-28T04:56:43;6.87;;;4.87;;
67749;SDS011;54550;48.838;8.828;2023-02-28T04:59:09;7.17;;;5.80;;
67749;SDS011;54550;48.838;8.828;2023-02-28T05:01:34;15.00;;;6.40;;
67749;SDS011;54550;48.838;8.828;2023-02-28T05:04:01;8.70;;;6.22;;
67749;SDS011;54550;48.838;8.828;2023-02-28T05:06:30;10.32;;;6.20;;
67749;SDS011;54550;48.838;8.828;2023-02-28T05:08:58;8.77;;;6.35;;
67749;SDS011;54550;48.838;8.828;2023-02-28T05:11:31;9.43;;;6.65;;
67749;SDS011;54550;48.838;8.828;2023-02-28T05:14:03;9.82;;;6.13;;
67749;SDS011;54550;48.838;8.828;2023-02-28T05:16:31;9.20;;;6.10;;
67749;SDS011;54550;48.838;8.828;2023-02-28T05:18:57;10.07;;;5.70;;
67749;SDS011;54550;48.838;8.828;2023-02-28T05:21:24;9.17;;;6.00;;
67749;SDS011;54550;48.838;8.828;2023-02-28T05:23:53;8.60;;;6.40;;
67749;SDS011;54550;48.838;8.828;2023-02-28T05:26:20;11.02;;;7.20;;
67749;SDS011;54550;48.838;8.828;2023-02-28T05:28:45;10.23;;;6.53;;
67749;SDS011;54550;48.838;8.828;2023-02-28T05:31:11;8.40;;;6.90;;
67749;SDS011;54550;48.838;8.828;2023-02-28T05:33:37;8.33;;;6.37;;
67749;SDS011;54550;48.838;8.828;2023-02-28T05:36:03;17.33;;;6.50;;
67749;SDS011;54550;48.838;8.828;2023-02-28T05:38:29;13.35;;;5.90;;
67749;SDS011;54550;48.838;8.828;2023-02-28T05:40:54;7.57;;;5.90;;
67749;SDS011;54550;48.838;8.828;2023-02-28T05:43:21;9.48;;;6.47;;
67749;SDS011;54550;48.838;8.828;2023-02-28T05:45:46;10.73;;;6.30;;
67749;SDS011;54550;48.838;8.828;2023-02-28T05:48:12;10.73;;;6.20;;
67749;SDS011;54550;48.838;8.828;2023-02-28T05:50:37;15.37;;;7.07;;
67749;SDS011;54550;48.838;8.828;2023-02-28T05:53:03;17.00;;;6.83;;
67749;SDS011;54550;48.838;8.828;2023-02-28T05:55:28;12.83;;;6.77;;
67749;SDS011;54550;48.838;8.828;2023-02-28T05:57:54;9.87;;;5.60;;
67749;SDS011;54550;48.838;8.828;2023-02-28T06:00:20;11.27;;;6.90;;
67749;SDS011;54550;48.838;8.828;2023-02-28T06:02:46;11.68;;;6.30;;
67749;SDS011;54550;48.838;8.828;2023-02-28T06:05:13;10.50;;;6.97;;
67749;SDS011;54550;48.838;8.828;2023-02-28T06:07:40;10.43;;;6.43;;
67749;SDS011;54550;48.838;8.828;2023-02-28T06:10:06;9.53;;;6.20;;
67749;SDS011;54550;48.838;8.828;2023-02-28T06:12:32;13.57;;;7.95;;
67749;SDS011;54550;48.838;8.828;2023-02-28T06:14:57;9.63;;;6.63;;
67749;SDS011;54550;48.838;8.828;2023-02-28T06:17:23;11.27;;;7.23;;
67749;SDS011;54550;48.838;8.828;2023-02-28T06:19:48;8.33;;;5.70;;
67749;SDS011;54550;48.838;8.828;2023-02-28T06:22:14;11.63;;;6.20;;
67749;SDS011;54550;48.838;8.828;2023-02-28T06:24:40;9.97;;;6.10;;
67749;SDS011;54550;48.838;8.828;2023-02-28T06:27:05;17.80;;;7.93;;
67749;SDS011;54550;48.838;8.828;2023-02-28T06:29:31;11.73;;;7.47;;
67749;SDS011;54550;48.838;8.828;2023-02-28T06:31:58;24.83;;;6.50;;
67749;SDS011;54550;48.838;8.828;2023-02-28T06:34:23;10.53;;;5.17;;
67749;SDS011;54550;48.838;8.828;2023-02-28T06:36:50;12.37;;;7.60;;
67749;SDS011;54550;48.838;8.828;2023-02-28T06:39:16;23.55;;;13.05;;
67749;SDS011;54550;48.838;8.828;2023-02-28T06:41:42;36.50;;;13.13;;
67749;SDS011;54550;48.838;8.828;2023-02-28T06:44:14;99.80;;;32.03;;
67749;SDS011;54550;48.838;8.828;2023-02-28T06:46:41;17.02;;;7.75;;
67749;SDS011;54550;48.838;8.828;2023-02-28T06:49:08;20.77;;;9.43;;
67749;SDS011;54550;48.838;8.828;2023-02-28T06:51:34;22.63;;;10.32;;
67749;SDS011;54550;48.838;8.828;2023-02-28T06:54:01;21.33;;;10.88;;
67749;SDS011;54550;48.838;8.828;2023-02-28T06:56:27;17.07;;;9.50;;
67749;SDS011;54550;48.838;8.828;2023-02-28T06:58:52;18.37;;;10.20;;
67749;SDS011;54550;48.838;8.828;2023-02-28T07:01:18;15.67;;;8.90;;
67749;SDS011;54550;48.838;8.828;2023-02-28T07:03:44;19.35;;;7.05;;
67749;SDS011;54550;48.838;8.828;2023-02-28T07:06:10;13.25;;;6.88;;
67749;SDS011;54550;48.838;8.828;2023-02-28T07:08:36;14.27;;;7.20;;
67749;SDS011;54550;48.838;8.828;2023-02-28T07:11:03;9.43;;;6.90;;
67749;SDS011;54550;48.838;8.828;2023-02-28T07:13:29;11.05;;;6.00;;
67749;SDS011;54550;48.838;8.828;2023-02-28T07:16:01;16.30;;;8.17;;
67749;SDS011;54550;48.838;8.828;2023-02-28T07:18:28;8.48;;;5.60;;
67749;SDS011;54550;48.838;8.828;2023-02-28T07:20:54;13.93;;;6.57;;
67749;SDS011;54550;48.838;8.828;2023-02-28T07:23:20;10.93;;;5.43;;
67749;SDS011;54550;48.838;8.828;2023-02-28T07:25:46;11.57;;;6.63;;
67749;SDS011;54550;48.838;8.828;2023-02-28T07:28:12;8.67;;;5.57;;
67749;SDS011;54550;48.838;8.828;2023-02-28T07:30:38;10.50;;;6.60;;
67749;SDS011;54550;48.838;8.828;2023-02-28T07:33:04;9.93;;;6.32;;
67749;SDS011;54550;48.838;8.828;2023-02-28T07:35:30;11.30;;;7.03;;
67749;SDS011;54550;48.838;8.828;2023-02-28T07:37:59;11.50;;;6.03;;
67749;SDS011;54550;48.838;8.828;2023-02-28T07:40:25;6.70;;;4.80;;
67749;SDS011;54550;48.838;8.828;2023-02-28T07:42:51;22.43;;;6.33;;
67749;SDS011;54550;48.838;8.828;2023-02-28T07:45:16;13.63;;;5.93;;
67749;SDS011;54550;48.838;8.828;2023-02-28T07:47:42;11.53;;;6.63;;
67749;SDS011;54550;48.838;8.828;2023-02-28T07:50:11;11.20;;;6.72;;
67749;SDS011;54550;48.838;8.828;2023-02-28T07:52:38;11.38;;;5.80;;
67749;SDS011;54550;48.838;8.828;2023-02-28T07:55:05;9.50;;;5.03;;
67749;SDS011;54550;48.838;8.828;2023-02-28T07:57:31;11.73;;;6.57;;
67749;SDS011;54550;48.838;8.828;2023-02-28T07:59:57;17.80;;;5.57;;
67749;SDS011;54550;48.838;8.828;2023-02-28T08:02:22;9.37;;;6.50;;
67749;SDS011;54550;48.838;8.828;2023-02-28T08:04:48;12.60;;;6.73;;
67749;SDS011;54550;48.838;8.828;2023-02-28T08:07:14;12.33;;;6.60;;
67749;SDS011;54550;48.838;8.828;2023-02-28T08:09:41;13.02;;;6.05;;
67749;SDS011;54550;48.838;8.828;2023-02-28T08:12:07;11.60;;;6.80;;
67749;SDS011;54550;48.838;8.828;2023-02-28T08:14:34;10.55;;;7.28;;
67749;SDS011;54550;48.838;8.828;2023-02-28T08:17:00;10.57;;;7.93;;
67749;SDS011;54550;48.838;8.828;2023-02-28T08:19:25;34.60;;;14.57;;
67749;SDS011;54550;48.838;8.828;2023-02-28T08:21:51;18.73;;;8.70;;
67749;SDS011;54550;48.838;8.828;2023-02-28T08:24:17;22.23;;;8.80;;
67749;SDS011;54550;48.838;8.828;2023-02-28T08:26:42;27.63;;;8.70;;
67749;SDS011;54550;48.838;8.828;2023-02-28T08:29:08;18.87;;;7.90;;
67749;SDS011;54550;48.838;8.828;2023-02-28T08:31:33;14.20;;;7.13;;
67749;SDS011;54550;48.838;8.828;2023-02-28T08:34:00;15.02;;;8.43;;
67749;SDS011;54550;48.838;8.828;2023-02-28T08:36:33;22.33;;;9.05;;
67749;SDS011;54550;48.838;8.828;2023-02-28T08:38:58;14.77;;;8.87;;
67749;SDS011;54550;48.838;8.828;2023-02-28T08:41:24;13.70;;;7.37;;
67749;SDS011;54550;48.838;8.828;2023-02-28T08:43:51;13.73;;;7.90;;
67749;SDS011;54550;48.838;8.828;2023-02-28T08:46:17;11.93;;;6.65;;
67749;SDS011;54550;48.838;8.828;2023-02-28T08:48:43;11.07;;;7.00;;
67749;SDS011;54550;48.838;8.828;2023-02-28T08:51:10;23.30;;;9.47;;
67749;SDS011;54550;48.838;8.828;2023-02-28T08:53:38;15.70;;;8.45;;
67749;SDS011;54550;48.838;8.828;2023-02-28T08:56:09;11.18;;;7.22;;
67749;SDS011;54550;48.838;8.828;2023-02-28T08:58:36;18.13;;;9.65;;
67749;SDS011;54550;48.838;8.828;2023-02-28T09:01:09;7.82;;;5.57;;
67749;SDS011;54550;48.838;8.828;2023-02-28T09:03:36;15.15;;;8.98;;
67749;SDS011;54550;48.838;8.828;2023-02-28T09:06:02;16.15;;;8.23;;
67749;SDS011;54550;48.838;8.828;2023-02-28T09:08:29;21.85;;;10.52;;
67749;SDS011;54550;48.838;8.828;2023-02-28T09:10:56;15.18;;;8.60;;
67749;SDS011;54550;48.838;8.828;2023-02-28T09:13:23;16.45;;;10.32;;
67749;SDS011;54550;48.838;8.828;2023-02-28T09:15:49;9.38;;;6.97;;
67749;SDS011;54550;48.838;8.828;2023-02-28T09:18:15;9.93;;;6.77;;
67749;SDS011;54550;48.838;8.828;2023-02-28T09:20:41;18.13;;;9.63;;
67749;SDS011;54550;48.838;8.828;2023-02-28T09:23:08;16.50;;;10.25;;
67749;SDS011;54550;48.838;8.828;2023-02-28T09:25:35;12.38;;;7.25;;
67749;SDS011;54550;48.838;8.828;2023-02-28T09:28:01;20.40;;;8.30;;
67749;SDS011;54550;48.838;8.828;2023-02-28T09:30:27;20.50;;;9.27;;
67749;SDS011;54550;48.838;8.828;2023-02-28T09:32:53;13.98;;;8.05;;
67749;SDS011;54550;48.838;8.828;2023-02-28T09:35:20;13.47;;;8.30;;
67749;SDS011;54550;48.838;8.828;2023-02-28T09:37:47;12.20;;;7.25;;
67749;SDS011;54550;48.838;8.828;2023-02-28T09:40:13;22.65;;;9.95;;
67749;SDS011;54550;48.838;8.828;2023-02-28T09:42:42;19.88;;;10.82;;
67749;SDS011;54550;48.838;8.828;2023-02-28T09:45:14;25.50;;;12.73;;
67749;SDS011;54550;48.838;8.828;2023-02-28T09:48:03;13.98;;;8.25;;
67749;SDS011;54550;48.838;8.828;2023-02-28T09:50:36;11.25;;;7.90;;
67749;SDS011;54550;48.838;8.828;2023-02-28T09:53:11;11.48;;;7.13;;
67749;SDS011;54550;48.838;8.828;2023-02-28T09:55:50;14.93;;;8.63;;
67749;SDS011;54550;48.838;8.828;2023-02-28T09:58:26;12.40;;;8.02;;
67749;SDS011;54550;48.838;8.828;2023-02-28T10:01:19;10.60;;;7.07;;
67749;SDS011;54550;48.838;8.828;2023-02-28T10:04:35;11.55;;;7.95;;
67749;SDS011;54550;48.838;8.828;2023-02-28T10:07:07;19.00;;;8.10;;
67749;SDS011;54550;48.838;8.828;2023-02-28T10:09:57;11.05;;;7.35;;
67749;SDS011;54550;48.838;8.828;2023-02-28T10:12:26;13.32;;;7.88;;
67749;SDS011;54550;48.838;8.828;2023-02-28T10:14:54;18.33;;;8.27;;
67749;SDS011;54550;48.838;8.828;2023-02-28T10:17:27;16.20;;;8.23;;
67749;SDS011;54550;48.838;8.828;2023-02-28T10:20:06;12.23;;;7.70;;
67749;SDS011;54550;48.838;8.828;2023-02-28T10:22:40;9.90;;;5.38;;
67749;SDS011;54550;48.838;8.828;2023-02-28T10:25:21;20.08;;;8.55;;
67749;SDS011;54550;48.838;8.828;2023-02-28T10:28:01;20.52;;;6.95;;
67749;SDS011;54550;48.838;8.828;2023-02-28T10:30:36;13.18;;;7.40;;
67749;SDS011;54550;48.838;8.828;2023-02-28T10:33:05;12.95;;;7.80;;
67749;SDS011;54550;48.838;8.828;2023-02-28T10:35:30;13.53;;;7.60;;
67749;SDS011;54550;48.838;8.828;2023-02-28T10:37:59;12.85;;;8.10;;
67749;SDS011;54550;48.838;8.828;2023-02-28T10:40:29;13.93;;;9.20;;
67749;SDS011;54550;48.838;8.828;2023-02-28T10:45:37;11.68;;;6.43;;
67749;SDS011;54550;48.838;8.828;2023-02-28T11:01:21;14.38;;;8.18;;
67749;SDS011;54550;48.838;8.828;2023-02-28T11:03:49;14.60;;;8.05;;
67749;SDS011;54550;48.838;8.828;2023-02-28T11:06:23;14.98;;;8.55;;
67749;SDS011;54550;48.838;8.828;2023-02-28T11:09:04;12.30;;;7.05;;
67749;SDS011;54550;48.838;8.828;2023-02-28T11:11:42;13.23;;;7.72;;
67749;SDS011;54550;48.838;8.828;2023-02-28T11:14:20;15.32;;;7.97;;
67749;SDS011;54550;48.838;8.828;2023-02-28T11:16:51;16.90;;;8.57;;
67749;SDS011;54550;48.838;8.828;2023-02-28T11:19:24;14.45;;;8.73;;
67749;SDS011;54550;48.838;8.828;2023-02-28T11:21:57;14.77;;;8.18;;
67749;SDS011;54550;48.838;8.828;2023-02-28T11:24:28;12.98;;;7.00;;
67749;SDS011;54550;48.838;8.828;2023-02-28T11:27:00;16.40;;;7.70;;
67749;SDS011;54550;48.838;8.828;2023-02-28T11:29:30;13.10;;;7.70;;
67749;SDS011;54550;48.838;8.828;2023-02-28T11:34:41;13.50;;;7.80;;
67749;SDS011;54550;48.838;8.828;2023-02-28T11:37:12;13.75;;;8.77;;
67749;SDS011;54550;48.838;8.828;2023-02-28T11:39:40;15.35;;;7.65;;
67749;SDS011;54550;48.838;8.828;2023-02-28T11:45:07;17.92;;;7.78;;
67749;SDS011;54550;48.838;8.828;2023-02-28T11:47:47;13.18;;;7.65;;
67749;SDS011;54550;48.838;8.828;2023-02-28T11:50:36;15.52;;;8.55;;
67749;SDS011;54550;48.838;8.828;2023-02-28T11:53:10;24.27;;;13.10;;
67749;SDS011;54550;48.838;8.828;2023-02-28T11:55:44;10.98;;;7.80;;
67749;SDS011;54550;48.838;8.828;2023-02-28T11:58:15;26.65;;;12.40;;
67749;SDS011;54550;48.838;8.828;2023-02-28T12:03:44;15.88;;;9.35;;
67749;SDS011;54550;48.838;8.828;2023-02-28T12:06:23;20.50;;;8.98;;
67749;SDS011;54550;48.838;8.828;2023-02-28T12:14:35;14.52;;;9.15;;
67749;SDS011;54550;48.838;8.828;2023-02-28T12:17:46;17.48;;;9.98;;
67749;SDS011;54550;48.838;8.828;2023-02-28T12:20:21;13.35;;;8.68;;
67749;SDS011;54550;48.838;8.828;2023-02-28T12:23:06;20.45;;;11.38;;
67749;SDS011;54550;48.838;8.828;2023-02-28T12:28:17;17.15;;;9.95;;
67749;SDS011;54550;48.838;8.828;2023-02-28T12:31:13;12.38;;;8.63;;
67749;SDS011;54550;48.838;8.828;2023-02-28T12:33:45;26.50;;;10.57;;
67749;SDS011;54550;48.838;8.828;2023-02-28T12:36:16;14.65;;;7.57;;
67749;SDS011;54550;48.838;8.828;2023-02-28T12:39:00;20.20;;;10.75;;
67749;SDS011;54550;48.838;8.828;2023-02-28T12:41:45;11.98;;;7.85;;
67749;SDS011;54550;48.838;8.828;2023-02-28T12:44:17;12.75;;;8.63;;
67749;SDS011;54550;48.838;8.828;2023-02-28T12:46:56;14.43;;;9.52;;
67749;SDS011;54550;48.838;8.828;2023-02-28T12:49:26;14.45;;;7.50;;
67749;SDS011;54550;48.838;8.828;2023-02-28T12:51:56;20.33;;;10.43;;
67749;SDS011;54550;48.838;8.828;2023-02-28T12:57:06;18.58;;;9.60;;
67749;SDS011;54550;48.838;8.828;2023-02-28T12:59:41;12.52;;;7.82;;
67749;SDS011;54550;48.838;8.828;2023-02-28T13:11:06;21.90;;;7.97;;
67749;SDS011;54550;48.838;8.828;2023-02-28T13:13:32;11.63;;;8.67;;
67749;SDS011;54550;48.838;8.828;2023-02-28T13:16:08;12.40;;;8.10;;
67749;SDS011;54550;48.838;8.828;2023-02-28T13:18:36;10.98;;;7.72;;
67749;SDS011;54550;48.838;8.828;2023-02-28T13:21:23;12.88;;;8.90;;
67749;SDS011;54550;48.838;8.828;2023-02-28T13:27:10;10.50;;;7.95;;
67749;SDS011;54550;48.838;8.828;2023-02-28T13:42:46;11.43;;;7.45;;
67749;SDS011;54550;48.838;8.828;2023-02-28T13:45:25;16.80;;;7.18;;
67749;SDS011;54550;48.838;8.828;2023-02-28T13:47:58;14.00;;;8.43;;
67749;SDS011;54550;48.838;8.828;2023-02-28T13:50:29;15.13;;;7.40;;
67749;SDS011;54550;48.838;8.828;2023-02-28T13:58:24;17.95;;;8.00;;
67749;SDS011;54550;48.838;8.828;2023-02-28T14:11:41;13.00;;;7.90;;
67749;SDS011;54550;48.838;8.828;2023-02-28T14:14:09;18.70;;;8.75;;
67749;SDS011;54550;48.838;8.828;2023-02-28T14:16:55;23.55;;;10.70;;
67749;SDS011;54550;48.838;8.828;2023-02-28T14:19:24;26.15;;;13.38;;
67749;SDS011;54550;48.838;8.828;2023-02-28T14:21:58;24.40;;;12.50;;
67749;SDS011;54550;48.838;8.828;2023-02-28T14:24:51;17.13;;;10.07;;
67749;SDS011;54550;48.838;8.828;2023-02-28T14:27:40;11.32;;;7.60;;
67749;SDS011;54550;48.838;8.828;2023-02-28T14:30:18;16.70;;;8.38;;
67749;SDS011;54550;48.838;8.828;2023-02-28T14:38:36;12.88;;;9.00;;
67749;SDS011;54550;48.838;8.828;2023-02-28T14:41:28;14.45;;;8.18;;
67749;SDS011;54550;48.838;8.828;2023-02-28T14:44:23;24.42;;;8.70;;
67749;SDS011;54550;48.838;8.828;2023-02-28T14:46:53;13.95;;;7.72;;
67749;SDS011;54550;48.838;8.828;2023-02-28T14:49:35;20.33;;;8.35;;
67749;SDS011;54550;48.838;8.828;2023-02-28T14:52:07;19.15;;;8.20;;
67749;SDS011;54550;48.838;8.828;2023-02-28T14:54:39;13.63;;;8.25;;
67749;SDS011;54550;48.838;8.828;2023-02-28T14:57:06;22.85;;;8.52;;
67749;SDS011;54550;48.838;8.828;2023-02-28T14:59:33;13.13;;;8.30;;
67749;SDS011;54550;48.838;8.828;2023-02-28T15:02:34;17.52;;;8.48;;
67749;SDS011;54550;48.838;8.828;2023-02-28T15:04:59;15.73;;;9.48;;
67749;SDS011;54550;48.838;8.828;2023-02-28T15:07:35;11.85;;;8.00;;
67749;SDS011;54550;48.838;8.828;2023-02-28T15:10:22;12.55;;;8.27;;
67749;SDS011;54550;48.838;8.828;2023-02-28T15:15:17;11.93;;;7.05;;
67749;SDS011;54550;48.838;8.828;2023-02-28T15:17:46;15.43;;;9.15;;
67749;SDS011;54550;48.838;8.828;2023-02-28T15:20:15;14.45;;;8.15;;
67749;SDS011;54550;48.838;8.828;2023-02-28T15:22:41;17.38;;;8.50;;
67749;SDS011;54550;48.838;8.828;2023-02-28T15:25:09;19.35;;;8.80;;
67749;SDS011;54550;48.838;8.828;2023-02-28T15:27:40;16.90;;;8.27;;
67749;SDS011;54550;48.838;8.828;2023-02-28T15:30:15;15.57;;;8.65;;
67749;SDS011;54550;48.838;8.828;2023-02-28T15:33:19;13.63;;;8.25;;
67749;SDS011;54550;48.838;8.828;2023-02-28T15:35:47;14.10;;;9.23;;
67749;SDS011;54550;48.838;8.828;2023-02-28T15:40:49;18.20;;;10.27;;
67749;SDS011;54550;48.838;8.828;2023-02-28T15:43:29;18.73;;;9.32;;
67749;SDS011;54550;48.838;8.828;2023-02-28T15:45:57;22.30;;;11.75;;
67749;SDS011;54550;48.838;8.828;2023-02-28T15:51:08;22.50;;;10.90;;
67749;SDS011;54550;48.838;8.828;2023-02-28T15:53:37;20.92;;;11.48;;
67749;SDS011;54550;48.838;8.828;2023-02-28T15:58:55;22.45;;;9.63;;
67749;SDS011;54550;48.838;8.828;2023-02-28T16:01:25;47.15;;;14.60;;
67749;SDS011;54550;48.838;8.828;2023-02-28T16:03:56;45.28;;;12.82;;
67749;SDS011;54550;48.838;8.828;2023-02-28T16:06:35;22.48;;;11.20;;
67749;SDS011;54550;48.838;8.828;2023-02-28T16:09:03;24.35;;;12.30;;
67749;SDS011;54550;48.838;8.828;2023-02-28T16:11:30;15.65;;;9.55;;
67749;SDS011;54550;48.838;8.828;2023-02-28T16:13:58;14.68;;;8.57;;
67749;SDS011;54550;48.838;8.828;2023-02-28T16:16:24;15.10;;;8.80;;
67749;SDS011;54550;48.838;8.828;2023-02-28T16:18:51;15.13;;;9.82;;
67749;SDS011;54550;48.838;8.828;2023-02-28T16:21:17;39.93;;;11.60;;
67749;SDS011;54550;48.838;8.828;2023-02-28T16:23:43;14.43;;;8.73;;
67749;SDS011;54550;48.838;8.828;2023-02-28T16:26:10;20.40;;;9.23;;
67749;SDS011;54550;48.838;8.828;2023-02-28T16:28:44;19.13;;;8.75;;
67749;SDS011;54550;48.838;8.828;2023-02-28T16:31:10;18.80;;;9.03;;
67749;SDS011;54550;48.838;8.828;2023-02-28T16:33:41;12.82;;;8.60;;
67749;SDS011;54550;48.838;8.828;2023-02-28T16:36:20;18.23;;;8.90;;
67749;SDS011;54550;48.838;8.828;2023-02-28T16:38:49;32.05;;;9.95;;
67749;SDS011;54550;48.838;8.828;2023-02-28T16:41:19;14.20;;;8.37;;
67749;SDS011;54550;48.838;8.828;2023-02-28T16:43:54;14.77;;;9.27;;
67749;SDS011;54550;48.838;8.828;2023-02-28T16:46:30;11.95;;;8.30;;
67749;SDS011;54550;48.838;8.828;2023-02-28T16:48:58;16.15;;;9.23;;
67749;SDS011;54550;48.838;8.828;2023-02-28T16:51:23;16.40;;;10.53;;
67749;SDS011;54550;48.838;8.828;2023-02-28T16:53:49;16.73;;;10.87;;
67749;SDS011;54550;48.838;8.828;2023-02-28T16:56:24;19.53;;;11.33;;
67749;SDS011;54550;48.838;8.828;2023-02-28T16:58:50;13.98;;;9.10;;
67749;SDS011;54550;48.838;8.828;2023-02-28T17:01:17;15.95;;;10.23;;
67749;SDS011;54550;48.838;8.828;2023-02-28T17:03:46;22.67;;;10.68;;